sensor_id;sensor_type;location;lat;lon;timestamp;P1;durP1;ratioP1;P2;durP2;ratioP2
11823;SDS011;5969;50.780;7.726;2023-02-15T00:01:17;18.50;;;12.75;;
11823;SDS011;5969;50.780;7.726;2023-02-15T00:03:45;18.20;;;12.75;;
11823;SDS011;5969;50.780;7.726;2023-02-15T00:06:14;15.73;;;11.65;;
11823;SDS011;5969;50.780;7.726;2023-02-15T00:08:41;15.57;;;10.63;;
11823;SDS011;5969;50.780;7.726;2023-02-15T00:11:08;17.58;;;11.90;;
11823;SDS011;5969;50.780;7.726;2023-02-15T00:13:36;18.67;;;13.18;;
11823;SDS011;5969;50.780;7.726;2023-02-15T00:16:07;20.45;;;13.95;;
11823;SDS011;5969;50.780;7.726;2023-02-15T00:18:35;21.42;;;13.90;;
11823;SDS011;5969;50.780;7.726;2023-02-15T00:21:04;21.48;;;14.25;;
11823;SDS011;5969;50.780;7.726;2023-02-15T00:23:33;17.92;;;13.27;;
11823;SDS011;5969;50.780;7.726;2023-02-15T00:26:03;18.85;;;12.80;;
11823;SDS011;5969;50.780;7.726;2023-02-15T00:28:31;19.33;;;13.68;;
11823;SDS011;5969;50.780;7.726;2023-02-15T00:31:02;18.58;;;13.75;;
11823;SDS011;5969;50.780;7.726;2023-02-15T00:33:29;18.85;;;13.38;;
11823;SDS011;5969;50.780;7.726;2023-02-15T00:35:59;20.40;;;13.85;;
11823;SDS011;5969;50.780;7.726;2023-02-15T00:38:28;18.50;;;13.27;;
11823;SDS011;5969;50.780;7.726;2023-02-15T00:40:56;18.33;;;13.13;;
11823;SDS011;5969;50.780;7.726;2023-02-15T00:43:24;20.25;;;12.95;;
11823;SDS011;5969;50.780;7.726;2023-02-15T00:45:51;21.45;;;14.20;;
11823;SDS011;5969;50.780;7.726;2023-02-15T00:48:18;19.48;;;13.05;;
11823;SDS011;5969;50.780;7.726;2023-02-15T00:50:46;16.42;;;12.27;;
11823;SDS011;5969;50.780;7.726;2023-02-15T00:53:14;18.75;;;13.27;;
11823;SDS011;5969;50.780;7.726;2023-02-15T00:55:43;18.23;;;13.45;;
11823;SDS011;5969;50.780;7.726;2023-02-15T00:58:10;21.25;;;14.25;;
11823;SDS011;5969;50.780;7.726;2023-02-15T01:00:38;18.45;;;14.23;;
11823;SDS011;5969;50.780;7.726;2023-02-15T01:03:05;24.00;;;16.30;;
11823;SDS011;5969;50.780;7.726;2023-02-15T01:05:32;24.90;;;16.50;;
11823;SDS011;5969;50.780;7.726;2023-02-15T01:07:59;27.52;;;17.70;;
11823;SDS011;5969;50.780;7.726;2023-02-15T01:10:27;15.82;;;11.90;;
11823;SDS011;5969;50.780;7.726;2023-02-15T01:12:56;16.42;;;11.57;;
11823;SDS011;5969;50.780;7.726;2023-02-15T01:15:23;14.43;;;10.85;;
11823;SDS011;5969;50.780;7.726;2023-02-15T01:17:50;16.33;;;11.63;;
11823;SDS011;5969;50.780;7.726;2023-02-15T01:20:18;19.30;;;12.85;;
11823;SDS011;5969;50.780;7.726;2023-02-15T01:22:45;18.45;;;12.45;;
11823;SDS011;5969;50.780;7.726;2023-02-15T01:25:14;20.88;;;13.32;;
11823;SDS011;5969;50.780;7.726;2023-02-15T01:27:41;18.80;;;13.45;;
11823;SDS011;5969;50.780;7.726;2023-02-15T01:30:10;19.15;;;12.93;;
11823;SDS011;5969;50.780;7.726;2023-02-15T01:32:37;18.80;;;13.35;;
11823;SDS011;5969;50.780;7.726;2023-02-15T01:35:05;18.92;;;13.23;;
11823;SDS011;5969;50.780;7.726;2023-02-15T01:37:32;18.10;;;13.35;;
11823;SDS011;5969;50.780;7.726;2023-02-15T01:39:59;19.52;;;12.52;;
11823;SDS011;5969;50.780;7.726;2023-02-15T01:42:27;18.48;;;13.15;;
11823;SDS011;5969;50.780;7.726;2023-02-15T01:44:56;17.92;;;13.25;;
11823;SDS011;5969;50.780;7.726;2023-02-15T01:47:27;19.33;;;13.38;;
11823;SDS011;5969;50.780;7.726;2023-02-15T01:50:03;20.85;;;13.25;;
11823;SDS011;5969;50.780;7.726;2023-02-15T01:52:35;17.38;;;12.55;;
11823;SDS011;5969;50.780;7.726;2023-02-15T01:55:06;21.23;;;13.75;;
11823;SDS011;5969;50.780;7.726;2023-02-15T01:57:35;21.27;;;13.68;;
11823;SDS011;5969;50.780;7.726;2023-02-15T02:00:04;18.50;;;12.60;;
11823;SDS011;5969;50.780;7.726;2023-02-15T02:02:34;20.05;;;13.88;;
11823;SDS011;5969;50.780;7.726;2023-02-15T02:05:02;20.45;;;13.70;;
11823;SDS011;5969;50.780;7.726;2023-02-15T02:07:32;19.80;;;13.00;;
11823;SDS011;5969;50.780;7.726;2023-02-15T02:10:01;19.80;;;12.68;;
11823;SDS011;5969;50.780;7.726;2023-02-15T02:12:29;19.90;;;12.70;;
11823;SDS011;5969;50.780;7.726;2023-02-15T02:14:56;18.02;;;12.80;;
11823;SDS011;5969;50.780;7.726;2023-02-15T02:17:27;18.98;;;12.65;;
11823;SDS011;5969;50.780;7.726;2023-02-15T02:20:18;19.73;;;14.32;;
11823;SDS011;5969;50.780;7.726;2023-02-15T02:23:03;19.13;;;12.50;;
11823;SDS011;5969;50.780;7.726;2023-02-15T02:25:59;21.33;;;12.88;;
11823;SDS011;5969;50.780;7.726;2023-02-15T02:29:13;16.40;;;11.80;;
11823;SDS011;5969;50.780;7.726;2023-02-15T02:35:07;19.50;;;12.30;;
11823;SDS011;5969;50.780;7.726;2023-02-15T02:37:41;20.42;;;12.27;;
11823;SDS011;5969;50.780;7.726;2023-02-15T02:40:16;19.45;;;12.52;;
11823;SDS011;5969;50.780;7.726;2023-02-15T02:42:48;19.85;;;13.02;;
11823;SDS011;5969;50.780;7.726;2023-02-15T02:45:22;16.20;;;11.73;;
11823;SDS011;5969;50.780;7.726;2023-02-15T02:47:53;18.77;;;12.32;;
11823;SDS011;5969;50.780;7.726;2023-02-15T02:50:27;19.17;;;12.90;;
11823;SDS011;5969;50.780;7.726;2023-02-15T02:52:56;19.15;;;12.98;;
11823;SDS011;5969;50.780;7.726;2023-02-15T02:55:25;16.52;;;11.98;;
11823;SDS011;5969;50.780;7.726;2023-02-15T02:57:57;18.60;;;13.13;;
11823;SDS011;5969;50.780;7.726;2023-02-15T03:00:27;18.65;;;12.70;;
11823;SDS011;5969;50.780;7.726;2023-02-15T03:02:59;20.10;;;12.73;;
11823;SDS011;5969;50.780;7.726;2023-02-15T03:05:31;20.67;;;13.07;;
11823;SDS011;5969;50.780;7.726;2023-02-15T03:08:02;18.17;;;12.20;;
11823;SDS011;5969;50.780;7.726;2023-02-15T03:10:31;16.63;;;12.02;;
11823;SDS011;5969;50.780;7.726;2023-02-15T03:12:59;17.05;;;11.57;;
11823;SDS011;5969;50.780;7.726;2023-02-15T03:15:26;18.20;;;11.95;;
11823;SDS011;5969;50.780;7.726;2023-02-15T03:18:17;18.17;;;12.02;;
11823;SDS011;5969;50.780;7.726;2023-02-15T03:20:49;18.40;;;12.25;;
11823;SDS011;5969;50.780;7.726;2023-02-15T03:23:18;18.73;;;12.48;;
11823;SDS011;5969;50.780;7.726;2023-02-15T03:25:48;20.08;;;13.50;;
11823;SDS011;5969;50.780;7.726;2023-02-15T03:28:19;20.25;;;12.75;;
11823;SDS011;5969;50.780;7.726;2023-02-15T03:30:49;17.92;;;11.70;;
11823;SDS011;5969;50.780;7.726;2023-02-15T03:33:19;18.67;;;12.60;;
11823;SDS011;5969;50.780;7.726;2023-02-15T03:35:51;18.42;;;12.55;;
11823;SDS011;5969;50.780;7.726;2023-02-15T03:38:24;18.65;;;12.10;;
11823;SDS011;5969;50.780;7.726;2023-02-15T03:40:55;20.75;;;12.38;;
11823;SDS011;5969;50.780;7.726;2023-02-15T03:43:38;20.45;;;12.68;;
11823;SDS011;5969;50.780;7.726;2023-02-15T03:46:12;20.10;;;13.10;;
11823;SDS011;5969;50.780;7.726;2023-02-15T03:48:42;19.52;;;12.90;;
11823;SDS011;5969;50.780;7.726;2023-02-15T03:51:14;17.85;;;12.30;;
11823;SDS011;5969;50.780;7.726;2023-02-15T03:54:00;16.85;;;11.60;;
11823;SDS011;5969;50.780;7.726;2023-02-15T03:56:29;20.88;;;13.50;;
11823;SDS011;5969;50.780;7.726;2023-02-15T03:58:57;17.27;;;11.95;;
11823;SDS011;5969;50.780;7.726;2023-02-15T04:01:44;20.17;;;13.57;;
11823;SDS011;5969;50.780;7.726;2023-02-15T04:04:31;16.65;;;11.82;;
11823;SDS011;5969;50.780;7.726;2023-02-15T04:07:04;18.13;;;11.77;;
11823;SDS011;5969;50.780;7.726;2023-02-15T04:09:32;20.83;;;12.38;;
11823;SDS011;5969;50.780;7.726;2023-02-15T04:12:13;18.98;;;12.48;;
11823;SDS011;5969;50.780;7.726;2023-02-15T04:14:39;16.98;;;11.60;;
11823;SDS011;5969;50.780;7.726;2023-02-15T04:17:24;20.40;;;12.65;;
11823;SDS011;5969;50.780;7.726;2023-02-15T04:19:51;18.17;;;12.75;;
11823;SDS011;5969;50.780;7.726;2023-02-15T04:22:36;16.45;;;11.05;;
11823;SDS011;5969;50.780;7.726;2023-02-15T04:25:21;18.08;;;11.75;;
11823;SDS011;5969;50.780;7.726;2023-02-15T04:27:48;17.15;;;11.48;;
11823;SDS011;5969;50.780;7.726;2023-02-15T04:30:16;16.23;;;11.35;;
11823;SDS011;5969;50.780;7.726;2023-02-15T04:32:44;17.17;;;11.38;;
11823;SDS011;5969;50.780;7.726;2023-02-15T04:35:11;15.98;;;12.05;;
11823;SDS011;5969;50.780;7.726;2023-02-15T04:37:40;16.45;;;11.02;;
11823;SDS011;5969;50.780;7.726;2023-02-15T04:40:08;16.38;;;10.95;;
11823;SDS011;5969;50.780;7.726;2023-02-15T04:42:36;15.82;;;10.57;;
11823;SDS011;5969;50.780;7.726;2023-02-15T04:45:04;15.35;;;10.93;;
11823;SDS011;5969;50.780;7.726;2023-02-15T04:47:31;17.52;;;11.63;;
11823;SDS011;5969;50.780;7.726;2023-02-15T04:49:58;16.33;;;10.73;;
11823;SDS011;5969;50.780;7.726;2023-02-15T04:52:25;16.98;;;10.98;;
11823;SDS011;5969;50.780;7.726;2023-02-15T04:54:53;17.38;;;11.35;;
11823;SDS011;5969;50.780;7.726;2023-02-15T04:57:20;17.30;;;11.35;;
11823;SDS011;5969;50.780;7.726;2023-02-15T04:59:47;15.60;;;10.70;;
11823;SDS011;5969;50.780;7.726;2023-02-15T05:02:13;16.48;;;10.50;;
11823;SDS011;5969;50.780;7.726;2023-02-15T05:04:40;18.73;;;10.90;;
11823;SDS011;5969;50.780;7.726;2023-02-15T05:07:07;15.90;;;11.00;;
11823;SDS011;5969;50.780;7.726;2023-02-15T05:09:33;16.30;;;10.50;;
11823;SDS011;5969;50.780;7.726;2023-02-15T05:12:02;15.50;;;10.55;;
11823;SDS011;5969;50.780;7.726;2023-02-15T05:14:29;18.13;;;10.88;;
11823;SDS011;5969;50.780;7.726;2023-02-15T05:16:57;13.93;;;9.98;;
11823;SDS011;5969;50.780;7.726;2023-02-15T05:19:26;16.05;;;10.07;;
11823;SDS011;5969;50.780;7.726;2023-02-15T05:21:53;15.38;;;10.55;;
11823;SDS011;5969;50.780;7.726;2023-02-15T05:24:19;18.30;;;10.88;;
11823;SDS011;5969;50.780;7.726;2023-02-15T05:27:05;16.05;;;10.73;;
11823;SDS011;5969;50.780;7.726;2023-02-15T05:29:49;15.45;;;9.63;;
11823;SDS011;5969;50.780;7.726;2023-02-15T05:32:16;14.45;;;10.07;;
11823;SDS011;5969;50.780;7.726;2023-02-15T05:34:42;14.65;;;10.20;;
11823;SDS011;5969;50.780;7.726;2023-02-15T05:37:09;13.95;;;9.55;;
11823;SDS011;5969;50.780;7.726;2023-02-15T05:39:36;14.38;;;10.27;;
11823;SDS011;5969;50.780;7.726;2023-02-15T05:42:04;15.13;;;9.70;;
11823;SDS011;5969;50.780;7.726;2023-02-15T05:44:31;14.77;;;10.18;;
11823;SDS011;5969;50.780;7.726;2023-02-15T05:46:58;18.08;;;12.77;;
11823;SDS011;5969;50.780;7.726;2023-02-15T05:49:25;17.05;;;11.55;;
11823;SDS011;5969;50.780;7.726;2023-02-15T05:51:52;16.42;;;10.25;;
11823;SDS011;5969;50.780;7.726;2023-02-15T05:54:18;19.60;;;11.52;;
11823;SDS011;5969;50.780;7.726;2023-02-15T05:56:45;16.60;;;11.55;;
11823;SDS011;5969;50.780;7.726;2023-02-15T05:59:13;16.17;;;10.95;;
11823;SDS011;5969;50.780;7.726;2023-02-15T06:01:40;17.40;;;11.45;;
11823;SDS011;5969;50.780;7.726;2023-02-15T06:04:07;18.88;;;13.80;;
11823;SDS011;5969;50.780;7.726;2023-02-15T06:06:34;14.70;;;10.73;;
11823;SDS011;5969;50.780;7.726;2023-02-15T06:09:01;16.38;;;10.43;;
11823;SDS011;5969;50.780;7.726;2023-02-15T06:11:28;15.32;;;10.10;;
11823;SDS011;5969;50.780;7.726;2023-02-15T06:13:54;16.52;;;10.70;;
11823;SDS011;5969;50.780;7.726;2023-02-15T06:16:23;17.42;;;11.10;;
11823;SDS011;5969;50.780;7.726;2023-02-15T06:18:49;17.73;;;11.07;;
11823;SDS011;5969;50.780;7.726;2023-02-15T06:21:16;17.25;;;10.95;;
11823;SDS011;5969;50.780;7.726;2023-02-15T06:23:43;18.27;;;10.95;;
11823;SDS011;5969;50.780;7.726;2023-02-15T06:26:10;17.85;;;10.77;;
11823;SDS011;5969;50.780;7.726;2023-02-15T06:28:41;16.25;;;10.15;;
11823;SDS011;5969;50.780;7.726;2023-02-15T06:31:21;16.75;;;10.48;;
11823;SDS011;5969;50.780;7.726;2023-02-15T06:33:57;15.15;;;9.82;;
11823;SDS011;5969;50.780;7.726;2023-02-15T06:36:29;14.93;;;9.60;;
11823;SDS011;5969;50.780;7.726;2023-02-15T06:39:18;13.23;;;9.95;;
11823;SDS011;5969;50.780;7.726;2023-02-15T06:41:51;16.25;;;10.73;;
11823;SDS011;5969;50.780;7.726;2023-02-15T06:44:21;17.50;;;10.77;;
11823;SDS011;5969;50.780;7.726;2023-02-15T06:54:16;19.65;;;12.35;;
11823;SDS011;5969;50.780;7.726;2023-02-15T07:17:06;14.15;;;9.25;;
11823;SDS011;5969;50.780;7.726;2023-02-15T07:19:41;15.27;;;10.55;;
11823;SDS011;5969;50.780;7.726;2023-02-15T07:22:41;14.57;;;9.75;;
11823;SDS011;5969;50.780;7.726;2023-02-15T14:57:56;12.40;;;11.10;;
11823;SDS011;5969;50.780;7.726;2023-02-15T15:00:35;12.23;;;10.85;;
11823;SDS011;5969;50.780;7.726;2023-02-15T15:03:09;12.30;;;11.00;;
11823;SDS011;5969;50.780;7.726;2023-02-15T15:05:46;13.82;;;11.75;;
11823;SDS011;5969;50.780;7.726;2023-02-15T15:08:47;13.43;;;11.63;;
11823;SDS011;5969;50.780;7.726;2023-02-15T15:17:59;12.57;;;11.25;;
11823;SDS011;5969;50.780;7.726;2023-02-15T15:23:56;12.82;;;10.88;;
11823;SDS011;5969;50.780;7.726;2023-02-15T15:26:30;15.18;;;11.93;;
11823;SDS011;5969;50.780;7.726;2023-02-15T15:29:13;12.75;;;11.45;;
11823;SDS011;5969;50.780;7.726;2023-02-15T15:32:22;13.27;;;11.82;;
11823;SDS011;5969;50.780;7.726;2023-02-15T15:35:16;13.40;;;11.63;;
11823;SDS011;5969;50.780;7.726;2023-02-15T15:38:13;13.77;;;12.27;;
11823;SDS011;5969;50.780;7.726;2023-02-15T15:41:36;12.10;;;10.65;;
11823;SDS011;5969;50.780;7.726;2023-02-15T15:44:42;13.23;;;11.82;;
11823;SDS011;5969;50.780;7.726;2023-02-15T16:31:57;14.35;;;11.25;;
11823;SDS011;5969;50.780;7.726;2023-02-15T16:34:26;14.13;;;10.38;;
11823;SDS011;5969;50.780;7.726;2023-02-15T16:37:11;15.00;;;13.20;;
11823;SDS011;5969;50.780;7.726;2023-02-15T16:39:38;14.32;;;11.32;;
11823;SDS011;5969;50.780;7.726;2023-02-15T16:42:07;13.55;;;11.07;;
11823;SDS011;5969;50.780;7.726;2023-02-15T16:44:35;13.93;;;11.10;;
11823;SDS011;5969;50.780;7.726;2023-02-15T16:47:03;13.57;;;11.20;;
11823;SDS011;5969;50.780;7.726;2023-02-15T16:49:30;12.73;;;11.25;;
11823;SDS011;5969;50.780;7.726;2023-02-15T16:52:00;14.68;;;11.40;;
11823;SDS011;5969;50.780;7.726;2023-02-15T16:54:30;14.32;;;11.38;;
11823;SDS011;5969;50.780;7.726;2023-02-15T16:56:58;13.95;;;10.70;;
11823;SDS011;5969;50.780;7.726;2023-02-15T16:59:30;12.93;;;11.00;;
11823;SDS011;5969;50.780;7.726;2023-02-15T17:02:00;13.63;;;11.38;;
11823;SDS011;5969;50.780;7.726;2023-02-15T17:04:32;12.73;;;10.57;;
11823;SDS011;5969;50.780;7.726;2023-02-15T17:07:03;14.32;;;11.07;;
11823;SDS011;5969;50.780;7.726;2023-02-15T17:09:32;14.80;;;11.18;;
11823;SDS011;5969;50.780;7.726;2023-02-15T17:12:00;13.82;;;10.68;;
11823;SDS011;5969;50.780;7.726;2023-02-15T17:14:27;13.48;;;11.38;;
11823;SDS011;5969;50.780;7.726;2023-02-15T17:17:01;13.68;;;10.73;;
11823;SDS011;5969;50.780;7.726;2023-02-15T17:19:42;15.25;;;11.30;;
11823;SDS011;5969;50.780;7.726;2023-02-15T17:22:16;13.25;;;10.30;;
11823;SDS011;5969;50.780;7.726;2023-02-15T17:24:46;16.27;;;11.85;;
11823;SDS011;5969;50.780;7.726;2023-02-15T17:27:15;14.52;;;12.27;;
11823;SDS011;5969;50.780;7.726;2023-02-15T17:29:45;14.63;;;11.73;;
11823;SDS011;5969;50.780;7.726;2023-02-15T17:32:18;14.60;;;11.70;;
11823;SDS011;5969;50.780;7.726;2023-02-15T17:34:48;15.95;;;12.35;;
11823;SDS011;5969;50.780;7.726;2023-02-15T17:37:25;15.07;;;12.40;;
11823;SDS011;5969;50.780;7.726;2023-02-15T17:39:53;15.73;;;12.27;;
11823;SDS011;5969;50.780;7.726;2023-02-15T17:42:20;16.52;;;13.02;;
11823;SDS011;5969;50.780;7.726;2023-02-15T17:44:47;16.35;;;12.60;;
11823;SDS011;5969;50.780;7.726;2023-02-15T17:47:14;13.90;;;11.48;;
11823;SDS011;5969;50.780;7.726;2023-02-15T17:49:44;16.70;;;11.70;;
11823;SDS011;5969;50.780;7.726;2023-02-15T17:52:14;15.93;;;12.35;;
11823;SDS011;5969;50.780;7.726;2023-02-15T17:54:41;14.38;;;12.32;;
11823;SDS011;5969;50.780;7.726;2023-02-15T17:57:27;16.23;;;13.30;;
11823;SDS011;5969;50.780;7.726;2023-02-15T17:59:55;16.70;;;12.63;;
11823;SDS011;5969;50.780;7.726;2023-02-15T18:02:39;24.80;;;18.90;;
11823;SDS011;5969;50.780;7.726;2023-02-15T18:05:26;23.92;;;17.33;;
11823;SDS011;5969;50.780;7.726;2023-02-15T18:08:10;20.63;;;15.57;;
11823;SDS011;5969;50.780;7.726;2023-02-15T18:10:56;18.75;;;14.52;;
11823;SDS011;5969;50.780;7.726;2023-02-15T18:13:41;17.70;;;13.60;;
11823;SDS011;5969;50.780;7.726;2023-02-15T18:16:10;17.77;;;13.68;;
11823;SDS011;5969;50.780;7.726;2023-02-15T18:18:40;17.15;;;14.30;;
11823;SDS011;5969;50.780;7.726;2023-02-15T18:21:08;18.30;;;13.40;;
11823;SDS011;5969;50.780;7.726;2023-02-15T18:23:36;17.50;;;13.57;;
11823;SDS011;5969;50.780;7.726;2023-02-15T18:26:03;17.13;;;13.55;;
11823;SDS011;5969;50.780;7.726;2023-02-15T18:28:30;17.77;;;13.45;;
11823;SDS011;5969;50.780;7.726;2023-02-15T18:30:57;18.05;;;14.35;;
11823;SDS011;5969;50.780;7.726;2023-02-15T18:33:27;18.17;;;13.55;;
11823;SDS011;5969;50.780;7.726;2023-02-15T18:35:59;17.40;;;13.75;;
11823;SDS011;5969;50.780;7.726;2023-02-15T18:38:28;20.38;;;13.80;;
11823;SDS011;5969;50.780;7.726;2023-02-15T18:40:55;16.65;;;13.40;;
11823;SDS011;5969;50.780;7.726;2023-02-15T18:43:22;18.20;;;13.77;;
11823;SDS011;5969;50.780;7.726;2023-02-15T18:45:49;17.75;;;14.35;;
11823;SDS011;5969;50.780;7.726;2023-02-15T18:48:16;18.48;;;13.80;;
11823;SDS011;5969;50.780;7.726;2023-02-15T18:50:43;17.15;;;13.82;;
11823;SDS011;5969;50.780;7.726;2023-02-15T18:53:12;18.45;;;14.35;;
11823;SDS011;5969;50.780;7.726;2023-02-15T18:55:43;20.23;;;14.98;;
11823;SDS011;5969;50.780;7.726;2023-02-15T18:58:13;18.17;;;14.48;;
11823;SDS011;5969;50.780;7.726;2023-02-15T19:00:42;21.50;;;15.02;;
11823;SDS011;5969;50.780;7.726;2023-02-15T19:03:11;19.40;;;14.93;;
11823;SDS011;5969;50.780;7.726;2023-02-15T19:05:39;20.60;;;15.98;;
11823;SDS011;5969;50.780;7.726;2023-02-15T19:08:10;19.75;;;14.98;;
11823;SDS011;5969;50.780;7.726;2023-02-15T19:10:41;18.98;;;14.20;;
11823;SDS011;5969;50.780;7.726;2023-02-15T19:13:10;17.95;;;13.60;;
11823;SDS011;5969;50.780;7.726;2023-02-15T19:15:37;17.65;;;13.88;;
11823;SDS011;5969;50.780;7.726;2023-02-15T19:18:04;20.58;;;14.73;;
11823;SDS011;5969;50.780;7.726;2023-02-15T19:20:32;19.33;;;14.23;;
11823;SDS011;5969;50.780;7.726;2023-02-15T19:23:02;20.00;;;15.23;;
11823;SDS011;5969;50.780;7.726;2023-02-15T19:25:33;20.13;;;15.07;;
11823;SDS011;5969;50.780;7.726;2023-02-15T19:28:04;18.23;;;14.02;;
11823;SDS011;5969;50.780;7.726;2023-02-15T19:30:36;19.33;;;14.60;;
11823;SDS011;5969;50.780;7.726;2023-02-15T19:33:03;20.95;;;15.60;;
11823;SDS011;5969;50.780;7.726;2023-02-15T19:35:31;22.25;;;16.23;;
11823;SDS011;5969;50.780;7.726;2023-02-15T19:38:02;21.95;;;17.02;;
11823;SDS011;5969;50.780;7.726;2023-02-15T19:40:32;21.38;;;16.35;;
11823;SDS011;5969;50.780;7.726;2023-02-15T19:43:00;21.38;;;15.85;;
11823;SDS011;5969;50.780;7.726;2023-02-15T19:45:29;21.67;;;14.82;;
11823;SDS011;5969;50.780;7.726;2023-02-15T19:48:00;19.80;;;15.38;;
11823;SDS011;5969;50.780;7.726;2023-02-15T19:50:27;18.17;;;14.60;;
11823;SDS011;5969;50.780;7.726;2023-02-15T19:52:56;18.08;;;14.30;;
11823;SDS011;5969;50.780;7.726;2023-02-15T19:55:24;19.08;;;14.85;;
11823;SDS011;5969;50.780;7.726;2023-02-15T19:57:52;20.52;;;15.18;;
11823;SDS011;5969;50.780;7.726;2023-02-15T20:00:21;18.67;;;14.40;;
11823;SDS011;5969;50.780;7.726;2023-02-15T20:02:50;19.27;;;14.15;;
11823;SDS011;5969;50.780;7.726;2023-02-15T20:05:18;21.17;;;15.30;;
11823;SDS011;5969;50.780;7.726;2023-02-15T20:07:46;18.15;;;14.07;;
11823;SDS011;5969;50.780;7.726;2023-02-15T20:10:15;18.13;;;14.25;;
11823;SDS011;5969;50.780;7.726;2023-02-15T20:12:43;21.40;;;14.82;;
11823;SDS011;5969;50.780;7.726;2023-02-15T20:15:17;19.80;;;14.48;;
11823;SDS011;5969;50.780;7.726;2023-02-15T20:17:45;18.40;;;13.48;;
11823;SDS011;5969;50.780;7.726;2023-02-15T20:20:12;19.83;;;14.60;;
11823;SDS011;5969;50.780;7.726;2023-02-15T20:22:41;19.08;;;14.30;;
11823;SDS011;5969;50.780;7.726;2023-02-15T20:25:10;20.27;;;14.73;;
11823;SDS011;5969;50.780;7.726;2023-02-15T20:27:40;19.00;;;14.07;;
11823;SDS011;5969;50.780;7.726;2023-02-15T20:30:15;19.38;;;15.05;;
11823;SDS011;5969;50.780;7.726;2023-02-15T20:32:43;20.98;;;15.20;;
11823;SDS011;5969;50.780;7.726;2023-02-15T20:35:13;20.33;;;15.00;;
11823;SDS011;5969;50.780;7.726;2023-02-15T20:37:43;20.30;;;15.07;;
11823;SDS011;5969;50.780;7.726;2023-02-15T20:40:13;18.30;;;14.52;;
11823;SDS011;5969;50.780;7.726;2023-02-15T20:42:41;19.30;;;15.23;;
11823;SDS011;5969;50.780;7.726;2023-02-15T20:45:14;21.35;;;16.02;;
11823;SDS011;5969;50.780;7.726;2023-02-15T20:47:43;22.80;;;15.77;;
11823;SDS011;5969;50.780;7.726;2023-02-15T20:50:13;19.60;;;14.80;;
11823;SDS011;5969;50.780;7.726;2023-02-15T20:52:41;24.80;;;16.25;;
11823;SDS011;5969;50.780;7.726;2023-02-15T20:55:12;21.83;;;16.92;;
11823;SDS011;5969;50.780;7.726;2023-02-15T20:57:41;21.05;;;15.95;;
11823;SDS011;5969;50.780;7.726;2023-02-15T21:00:11;20.48;;;15.23;;
11823;SDS011;5969;50.780;7.726;2023-02-15T21:02:43;21.27;;;15.77;;
11823;SDS011;5969;50.780;7.726;2023-02-15T21:05:18;18.75;;;15.05;;
11823;SDS011;5969;50.780;7.726;2023-02-15T21:07:46;20.17;;;15.57;;
11823;SDS011;5969;50.780;7.726;2023-02-15T21:10:16;20.27;;;14.90;;
11823;SDS011;5969;50.780;7.726;2023-02-15T21:12:44;20.33;;;15.32;;
11823;SDS011;5969;50.780;7.726;2023-02-15T21:15:22;22.88;;;16.13;;
11823;SDS011;5969;50.780;7.726;2023-02-15T21:17:54;21.13;;;15.35;;
11823;SDS011;5969;50.780;7.726;2023-02-15T21:20:22;19.00;;;14.43;;
11823;SDS011;5969;50.780;7.726;2023-02-15T21:22:50;18.60;;;14.25;;
11823;SDS011;5969;50.780;7.726;2023-02-15T21:25:20;18.38;;;14.35;;
11823;SDS011;5969;50.780;7.726;2023-02-15T21:27:50;20.25;;;14.95;;
11823;SDS011;5969;50.780;7.726;2023-02-15T21:30:18;21.45;;;15.25;;
11823;SDS011;5969;50.780;7.726;2023-02-15T21:32:46;20.33;;;14.43;;
11823;SDS011;5969;50.780;7.726;2023-02-15T21:35:13;20.23;;;14.75;;
11823;SDS011;5969;50.780;7.726;2023-02-15T21:37:41;19.13;;;15.02;;
11823;SDS011;5969;50.780;7.726;2023-02-15T21:40:13;19.55;;;14.30;;
11823;SDS011;5969;50.780;7.726;2023-02-15T21:42:43;19.60;;;14.68;;
11823;SDS011;5969;50.780;7.726;2023-02-15T21:45:27;20.83;;;14.35;;
11823;SDS011;5969;50.780;7.726;2023-02-15T21:48:12;21.17;;;14.88;;
11823;SDS011;5969;50.780;7.726;2023-02-15T21:50:39;20.38;;;15.10;;
11823;SDS011;5969;50.780;7.726;2023-02-15T21:53:24;21.25;;;14.75;;
11823;SDS011;5969;50.780;7.726;2023-02-15T21:55:53;20.90;;;15.15;;
11823;SDS011;5969;50.780;7.726;2023-02-15T21:58:23;21.17;;;14.10;;
11823;SDS011;5969;50.780;7.726;2023-02-15T22:00:52;20.85;;;15.00;;
11823;SDS011;5969;50.780;7.726;2023-02-15T22:03:20;19.25;;;14.35;;
11823;SDS011;5969;50.780;7.726;2023-02-15T22:05:47;19.20;;;14.20;;
11823;SDS011;5969;50.780;7.726;2023-02-15T22:08:14;19.25;;;15.32;;
11823;SDS011;5969;50.780;7.726;2023-02-15T22:10:41;20.30;;;14.20;;
11823;SDS011;5969;50.780;7.726;2023-02-15T22:13:10;20.83;;;14.85;;
11823;SDS011;5969;50.780;7.726;2023-02-15T22:15:41;19.55;;;13.95;;
11823;SDS011;5969;50.780;7.726;2023-02-15T22:18:17;22.45;;;14.82;;
11823;SDS011;5969;50.780;7.726;2023-02-15T22:20:46;20.67;;;14.32;;
11823;SDS011;5969;50.780;7.726;2023-02-15T22:23:13;18.63;;;13.57;;
11823;SDS011;5969;50.780;7.726;2023-02-15T22:25:39;21.65;;;15.07;;
11823;SDS011;5969;50.780;7.726;2023-02-15T22:28:08;22.75;;;16.23;;
11823;SDS011;5969;50.780;7.726;2023-02-15T22:30:42;20.55;;;15.13;;
11823;SDS011;5969;50.780;7.726;2023-02-15T22:33:19;21.95;;;15.00;;
11823;SDS011;5969;50.780;7.726;2023-02-15T22:35:48;22.67;;;14.93;;
11823;SDS011;5969;50.780;7.726;2023-02-15T22:38:15;21.73;;;14.40;;
11823;SDS011;5969;50.780;7.726;2023-02-15T22:40:42;20.35;;;14.75;;
11823;SDS011;5969;50.780;7.726;2023-02-15T22:43:13;22.05;;;15.63;;
11823;SDS011;5969;50.780;7.726;2023-02-15T22:45:48;20.90;;;14.68;;
11823;SDS011;5969;50.780;7.726;2023-02-15T22:48:17;21.63;;;14.45;;
11823;SDS011;5969;50.780;7.726;2023-02-15T22:50:46;22.73;;;16.40;;
11823;SDS011;5969;50.780;7.726;2023-02-15T22:53:13;26.30;;;17.77;;
11823;SDS011;5969;50.780;7.726;2023-02-15T22:55:40;24.63;;;16.13;;
11823;SDS011;5969;50.780;7.726;2023-02-15T22:58:08;22.02;;;15.80;;
11823;SDS011;5969;50.780;7.726;2023-02-15T23:00:41;20.00;;;14.00;;
11823;SDS011;5969;50.780;7.726;2023-02-15T23:03:13;21.63;;;14.80;;
11823;SDS011;5969;50.780;7.726;2023-02-15T23:05:41;24.17;;;15.45;;
11823;SDS011;5969;50.780;7.726;2023-02-15T23:08:08;21.90;;;15.30;;
11823;SDS011;5969;50.780;7.726;2023-02-15T23:10:35;22.52;;;17.05;;
11823;SDS011;5969;50.780;7.726;2023-02-15T23:13:06;22.35;;;17.75;;
11823;SDS011;5969;50.780;7.726;2023-02-15T23:15:50;18.75;;;14.95;;
11823;SDS011;5969;50.780;7.726;2023-02-15T23:18:22;23.20;;;15.73;;
11823;SDS011;5969;50.780;7.726;2023-02-15T23:20:51;23.58;;;16.85;;
11823;SDS011;5969;50.780;7.726;2023-02-15T23:23:25;21.00;;;15.07;;
11823;SDS011;5969;50.780;7.726;2023-02-15T23:25:54;21.35;;;15.07;;
11823;SDS011;5969;50.780;7.726;2023-02-15T23:28:26;23.60;;;15.85;;
11823;SDS011;5969;50.780;7.726;2023-02-15T23:30:54;21.38;;;15.27;;
11823;SDS011;5969;50.780;7.726;2023-02-15T23:33:25;19.35;;;13.55;;
11823;SDS011;5969;50.780;7.726;2023-02-15T23:35:54;21.05;;;14.88;;
11823;SDS011;5969;50.780;7.726;2023-02-15T23:38:21;22.15;;;15.85;;
11823;SDS011;5969;50.780;7.726;2023-02-15T23:40:53;23.05;;;15.40;;
11823;SDS011;5969;50.780;7.726;2023-02-15T23:43:40;21.88;;;14.75;;
11823;SDS011;5969;50.780;7.726;2023-02-15T23:46:15;22.35;;;16.02;;
11823;SDS011;5969;50.780;7.726;2023-02-15T23:48:49;21.27;;;15.85;;
11823;SDS011;5969;50.780;7.726;2023-02-15T23:51:17;20.90;;;14.95;;
11823;SDS011;5969;50.780;7.726;2023-02-15T23:53:44;19.95;;;14.75;;
11823;SDS011;5969;50.780;7.726;2023-02-15T23:56:11;23.38;;;17.02;;
11823;SDS011;5969;50.780;7.726;2023-02-15T23:58:39;22.13;;;15.52;;
